sensor_id;sensor_type;location;lat;lon;timestamp;P1;durP1;ratioP1;P2;durP2;ratioP2
43124;SDS011;49182;50.788;7.318;2022-12-07T00:01:17;20.42;;;9.45;;
43124;SDS011;49182;50.788;7.318;2022-12-07T00:03:45;19.88;;;10.68;;
43124;SDS011;49182;50.788;7.318;2022-12-07T00:06:13;20.38;;;9.88;;
43124;SDS011;49182;50.788;7.318;2022-12-07T00:08:41;19.88;;;10.55;;
43124;SDS011;49182;50.788;7.318;2022-12-07T00:11:08;22.23;;;10.68;;
43124;SDS011;49182;50.788;7.318;2022-12-07T00:13:37;28.10;;;11.30;;
43124;SDS011;49182;50.788;7.318;2022-12-07T00:16:05;23.02;;;11.63;;
43124;SDS011;49182;50.788;7.318;2022-12-07T00:18:35;23.45;;;12.18;;
43124;SDS011;49182;50.788;7.318;2022-12-07T00:21:03;22.67;;;12.45;;
43124;SDS011;49182;50.788;7.318;2022-12-07T00:23:30;23.55;;;12.43;;
43124;SDS011;49182;50.788;7.318;2022-12-07T00:26:02;21.27;;;11.30;;
43124;SDS011;49182;50.788;7.318;2022-12-07T00:28:30;23.27;;;12.20;;
43124;SDS011;49182;50.788;7.318;2022-12-07T00:30:59;27.48;;;13.27;;
43124;SDS011;49182;50.788;7.318;2022-12-07T00:33:26;24.17;;;11.38;;
43124;SDS011;49182;50.788;7.318;2022-12-07T00:35:56;28.58;;;13.55;;
43124;SDS011;49182;50.788;7.318;2022-12-07T00:38:22;22.13;;;11.35;;
43124;SDS011;49182;50.788;7.318;2022-12-07T00:40:53;25.38;;;13.05;;
43124;SDS011;49182;50.788;7.318;2022-12-07T00:43:21;29.65;;;15.18;;
43124;SDS011;49182;50.788;7.318;2022-12-07T00:45:47;27.27;;;13.05;;
43124;SDS011;49182;50.788;7.318;2022-12-07T00:48:14;26.92;;;13.10;;
43124;SDS011;49182;50.788;7.318;2022-12-07T00:50:41;24.85;;;13.35;;
43124;SDS011;49182;50.788;7.318;2022-12-07T00:53:09;26.55;;;12.73;;
43124;SDS011;49182;50.788;7.318;2022-12-07T00:55:36;28.77;;;14.57;;
43124;SDS011;49182;50.788;7.318;2022-12-07T00:58:03;28.00;;;14.00;;
43124;SDS011;49182;50.788;7.318;2022-12-07T01:00:30;27.50;;;13.18;;
43124;SDS011;49182;50.788;7.318;2022-12-07T01:02:57;29.05;;;15.18;;
43124;SDS011;49182;50.788;7.318;2022-12-07T01:05:23;34.00;;;16.60;;
43124;SDS011;49182;50.788;7.318;2022-12-07T01:07:50;27.10;;;13.70;;
43124;SDS011;49182;50.788;7.318;2022-12-07T01:10:18;30.80;;;14.10;;
43124;SDS011;49182;50.788;7.318;2022-12-07T01:12:45;30.00;;;15.27;;
43124;SDS011;49182;50.788;7.318;2022-12-07T01:15:12;31.38;;;16.33;;
43124;SDS011;49182;50.788;7.318;2022-12-07T01:17:38;27.58;;;14.63;;
43124;SDS011;49182;50.788;7.318;2022-12-07T01:20:05;35.00;;;17.95;;
43124;SDS011;49182;50.788;7.318;2022-12-07T01:22:35;32.90;;;15.73;;
43124;SDS011;49182;50.788;7.318;2022-12-07T01:25:03;28.42;;;15.27;;
43124;SDS011;49182;50.788;7.318;2022-12-07T01:27:31;26.95;;;14.85;;
43124;SDS011;49182;50.788;7.318;2022-12-07T01:29:58;29.38;;;15.60;;
43124;SDS011;49182;50.788;7.318;2022-12-07T01:32:25;27.80;;;14.75;;
43124;SDS011;49182;50.788;7.318;2022-12-07T01:34:53;30.30;;;15.70;;
43124;SDS011;49182;50.788;7.318;2022-12-07T01:37:19;35.50;;;18.77;;
43124;SDS011;49182;50.788;7.318;2022-12-07T01:39:48;29.10;;;17.00;;
43124;SDS011;49182;50.788;7.318;2022-12-07T01:42:14;27.95;;;15.25;;
43124;SDS011;49182;50.788;7.318;2022-12-07T01:47:50;35.50;;;18.30;;
43124;SDS011;49182;50.788;7.318;2022-12-07T01:50:19;28.50;;;15.40;;
43124;SDS011;49182;50.788;7.318;2022-12-07T01:52:47;32.50;;;17.48;;
43124;SDS011;49182;50.788;7.318;2022-12-07T01:55:17;28.73;;;15.05;;
43124;SDS011;49182;50.788;7.318;2022-12-07T01:57:45;28.33;;;15.50;;
43124;SDS011;49182;50.788;7.318;2022-12-07T02:00:15;29.05;;;15.93;;
43124;SDS011;49182;50.788;7.318;2022-12-07T02:02:43;31.80;;;16.45;;
43124;SDS011;49182;50.788;7.318;2022-12-07T02:05:15;29.65;;;16.20;;
43124;SDS011;49182;50.788;7.318;2022-12-07T02:07:43;37.00;;;19.10;;
43124;SDS011;49182;50.788;7.318;2022-12-07T02:10:14;30.55;;;17.00;;
43124;SDS011;49182;50.788;7.318;2022-12-07T02:12:42;29.50;;;16.75;;
43124;SDS011;49182;50.788;7.318;2022-12-07T02:15:10;31.42;;;16.60;;
43124;SDS011;49182;50.788;7.318;2022-12-07T02:17:39;35.15;;;17.58;;
43124;SDS011;49182;50.788;7.318;2022-12-07T02:20:17;33.88;;;16.83;;
43124;SDS011;49182;50.788;7.318;2022-12-07T02:25:57;34.83;;;18.48;;
43124;SDS011;49182;50.788;7.318;2022-12-07T02:28:33;30.33;;;16.35;;
43124;SDS011;49182;50.788;7.318;2022-12-07T02:31:04;31.73;;;17.63;;
43124;SDS011;49182;50.788;7.318;2022-12-07T02:33:35;31.45;;;17.30;;
43124;SDS011;49182;50.788;7.318;2022-12-07T02:36:08;29.83;;;16.92;;
43124;SDS011;49182;50.788;7.318;2022-12-07T02:38:43;35.45;;;19.40;;
43124;SDS011;49182;50.788;7.318;2022-12-07T02:41:17;33.25;;;17.85;;
43124;SDS011;49182;50.788;7.318;2022-12-07T02:43:50;30.77;;;16.42;;
43124;SDS011;49182;50.788;7.318;2022-12-07T02:46:22;28.13;;;16.40;;
43124;SDS011;49182;50.788;7.318;2022-12-07T02:48:53;35.85;;;18.55;;
43124;SDS011;49182;50.788;7.318;2022-12-07T02:51:21;35.53;;;18.38;;
43124;SDS011;49182;50.788;7.318;2022-12-07T02:53:48;31.70;;;17.08;;
43124;SDS011;49182;50.788;7.318;2022-12-07T02:56:18;35.33;;;17.90;;
43124;SDS011;49182;50.788;7.318;2022-12-07T02:58:54;32.08;;;17.50;;
43124;SDS011;49182;50.788;7.318;2022-12-07T03:01:30;28.35;;;15.75;;
43124;SDS011;49182;50.788;7.318;2022-12-07T03:04:08;29.67;;;15.90;;
43124;SDS011;49182;50.788;7.318;2022-12-07T03:06:48;30.88;;;17.05;;
43124;SDS011;49182;50.788;7.318;2022-12-07T03:09:20;39.63;;;18.20;;
43124;SDS011;49182;50.788;7.318;2022-12-07T03:11:55;31.92;;;17.45;;
43124;SDS011;49182;50.788;7.318;2022-12-07T03:14:29;30.65;;;17.20;;
43124;SDS011;49182;50.788;7.318;2022-12-07T03:17:02;31.67;;;16.27;;
43124;SDS011;49182;50.788;7.318;2022-12-07T03:19:36;31.00;;;16.13;;
43124;SDS011;49182;50.788;7.318;2022-12-07T03:22:05;37.47;;;17.80;;
43124;SDS011;49182;50.788;7.318;2022-12-07T03:24:36;30.40;;;16.58;;
43124;SDS011;49182;50.788;7.318;2022-12-07T03:27:06;32.23;;;16.23;;
43124;SDS011;49182;50.788;7.318;2022-12-07T03:32:08;35.83;;;17.83;;
43124;SDS011;49182;50.788;7.318;2022-12-07T03:34:40;36.90;;;18.23;;
43124;SDS011;49182;50.788;7.318;2022-12-07T03:37:12;32.40;;;17.77;;
43124;SDS011;49182;50.788;7.318;2022-12-07T03:39:46;39.42;;;19.20;;
43124;SDS011;49182;50.788;7.318;2022-12-07T03:42:24;34.22;;;18.20;;
43124;SDS011;49182;50.788;7.318;2022-12-07T03:44:51;31.58;;;17.52;;
43124;SDS011;49182;50.788;7.318;2022-12-07T03:47:20;29.45;;;16.48;;
43124;SDS011;49182;50.788;7.318;2022-12-07T03:49:55;32.42;;;16.70;;
43124;SDS011;49182;50.788;7.318;2022-12-07T03:52:28;32.65;;;17.70;;
43124;SDS011;49182;50.788;7.318;2022-12-07T03:55:00;36.10;;;19.17;;
43124;SDS011;49182;50.788;7.318;2022-12-07T03:57:30;34.83;;;18.33;;
43124;SDS011;49182;50.788;7.318;2022-12-07T03:59:59;38.38;;;19.33;;
43124;SDS011;49182;50.788;7.318;2022-12-07T04:02:28;32.22;;;17.33;;
43124;SDS011;49182;50.788;7.318;2022-12-07T04:04:55;36.47;;;18.17;;
43124;SDS011;49182;50.788;7.318;2022-12-07T04:07:22;31.80;;;17.88;;
43124;SDS011;49182;50.788;7.318;2022-12-07T04:09:49;29.00;;;15.52;;
43124;SDS011;49182;50.788;7.318;2022-12-07T04:12:15;31.15;;;16.85;;
43124;SDS011;49182;50.788;7.318;2022-12-07T04:14:42;33.47;;;16.70;;
43124;SDS011;49182;50.788;7.318;2022-12-07T04:17:09;28.20;;;16.00;;
43124;SDS011;49182;50.788;7.318;2022-12-07T04:19:36;24.88;;;14.57;;
43124;SDS011;49182;50.788;7.318;2022-12-07T04:22:06;29.95;;;16.20;;
43124;SDS011;49182;50.788;7.318;2022-12-07T04:24:33;29.23;;;15.88;;
43124;SDS011;49182;50.788;7.318;2022-12-07T04:27:00;31.50;;;16.50;;
43124;SDS011;49182;50.788;7.318;2022-12-07T04:29:27;28.25;;;16.10;;
43124;SDS011;49182;50.788;7.318;2022-12-07T04:31:54;28.33;;;15.70;;
43124;SDS011;49182;50.788;7.318;2022-12-07T04:34:20;30.52;;;17.27;;
43124;SDS011;49182;50.788;7.318;2022-12-07T04:36:48;28.20;;;15.90;;
43124;SDS011;49182;50.788;7.318;2022-12-07T04:39:17;22.85;;;13.45;;
43124;SDS011;49182;50.788;7.318;2022-12-07T04:41:46;26.25;;;14.52;;
43124;SDS011;49182;50.788;7.318;2022-12-07T04:44:12;27.95;;;15.60;;
43124;SDS011;49182;50.788;7.318;2022-12-07T04:46:41;25.38;;;14.48;;
43124;SDS011;49182;50.788;7.318;2022-12-07T04:49:08;28.63;;;15.57;;
43124;SDS011;49182;50.788;7.318;2022-12-07T04:51:34;29.90;;;14.55;;
43124;SDS011;49182;50.788;7.318;2022-12-07T04:54:03;27.77;;;14.50;;
43124;SDS011;49182;50.788;7.318;2022-12-07T04:56:30;27.00;;;14.15;;
43124;SDS011;49182;50.788;7.318;2022-12-07T04:58:56;28.00;;;14.13;;
43124;SDS011;49182;50.788;7.318;2022-12-07T05:01:23;22.98;;;12.82;;
43124;SDS011;49182;50.788;7.318;2022-12-07T05:03:50;27.23;;;13.82;;
43124;SDS011;49182;50.788;7.318;2022-12-07T05:06:17;25.92;;;13.40;;
43124;SDS011;49182;50.788;7.318;2022-12-07T05:08:44;30.20;;;13.68;;
43124;SDS011;49182;50.788;7.318;2022-12-07T05:11:13;25.50;;;12.60;;
43124;SDS011;49182;50.788;7.318;2022-12-07T05:13:41;25.17;;;13.07;;
43124;SDS011;49182;50.788;7.318;2022-12-07T05:16:07;23.17;;;12.75;;
43124;SDS011;49182;50.788;7.318;2022-12-07T05:18:34;21.95;;;11.98;;
43124;SDS011;49182;50.788;7.318;2022-12-07T05:21:01;22.55;;;12.90;;
43124;SDS011;49182;50.788;7.318;2022-12-07T05:23:27;26.50;;;14.18;;
43124;SDS011;49182;50.788;7.318;2022-12-07T05:25:54;25.02;;;13.15;;
43124;SDS011;49182;50.788;7.318;2022-12-07T05:28:22;24.90;;;13.23;;
43124;SDS011;49182;50.788;7.318;2022-12-07T05:30:48;23.95;;;13.52;;
43124;SDS011;49182;50.788;7.318;2022-12-07T05:33:15;24.77;;;13.57;;
43124;SDS011;49182;50.788;7.318;2022-12-07T05:35:42;23.25;;;13.80;;
43124;SDS011;49182;50.788;7.318;2022-12-07T05:38:08;26.55;;;15.52;;
43124;SDS011;49182;50.788;7.318;2022-12-07T05:40:36;27.60;;;14.70;;
43124;SDS011;49182;50.788;7.318;2022-12-07T05:43:02;26.02;;;14.27;;
43124;SDS011;49182;50.788;7.318;2022-12-07T05:45:31;28.60;;;14.77;;
43124;SDS011;49182;50.788;7.318;2022-12-07T05:47:58;27.70;;;13.50;;
43124;SDS011;49182;50.788;7.318;2022-12-07T05:50:25;29.52;;;14.80;;
43124;SDS011;49182;50.788;7.318;2022-12-07T05:52:59;29.15;;;14.95;;
43124;SDS011;49182;50.788;7.318;2022-12-07T05:55:25;30.33;;;14.98;;
43124;SDS011;49182;50.788;7.318;2022-12-07T05:57:52;27.33;;;13.70;;
43124;SDS011;49182;50.788;7.318;2022-12-07T06:00:19;27.17;;;13.85;;
43124;SDS011;49182;50.788;7.318;2022-12-07T06:02:47;29.30;;;14.55;;
43124;SDS011;49182;50.788;7.318;2022-12-07T06:05:14;29.85;;;14.45;;
43124;SDS011;49182;50.788;7.318;2022-12-07T06:07:40;31.25;;;15.15;;
43124;SDS011;49182;50.788;7.318;2022-12-07T06:10:07;27.95;;;14.50;;
43124;SDS011;49182;50.788;7.318;2022-12-07T06:12:34;27.30;;;14.30;;
43124;SDS011;49182;50.788;7.318;2022-12-07T06:15:01;23.40;;;13.27;;
43124;SDS011;49182;50.788;7.318;2022-12-07T06:17:28;29.23;;;15.40;;
43124;SDS011;49182;50.788;7.318;2022-12-07T06:19:56;30.13;;;14.90;;
43124;SDS011;49182;50.788;7.318;2022-12-07T06:22:23;28.75;;;14.20;;
43124;SDS011;49182;50.788;7.318;2022-12-07T06:24:49;30.50;;;14.05;;
43124;SDS011;49182;50.788;7.318;2022-12-07T06:27:16;26.77;;;14.90;;
43124;SDS011;49182;50.788;7.318;2022-12-07T06:29:42;27.45;;;14.75;;
43124;SDS011;49182;50.788;7.318;2022-12-07T06:32:09;26.77;;;14.10;;
43124;SDS011;49182;50.788;7.318;2022-12-07T06:34:36;27.52;;;14.65;;
43124;SDS011;49182;50.788;7.318;2022-12-07T06:37:05;28.23;;;15.57;;
43124;SDS011;49182;50.788;7.318;2022-12-07T06:39:31;27.33;;;14.02;;
43124;SDS011;49182;50.788;7.318;2022-12-07T06:41:58;28.27;;;14.65;;
43124;SDS011;49182;50.788;7.318;2022-12-07T06:44:25;27.50;;;14.40;;
43124;SDS011;49182;50.788;7.318;2022-12-07T06:46:52;31.00;;;14.00;;
43124;SDS011;49182;50.788;7.318;2022-12-07T06:49:37;34.13;;;13.80;;
43124;SDS011;49182;50.788;7.318;2022-12-07T06:52:05;25.92;;;14.07;;
43124;SDS011;49182;50.788;7.318;2022-12-07T06:54:32;26.48;;;14.07;;
43124;SDS011;49182;50.788;7.318;2022-12-07T06:56:59;22.50;;;12.70;;
43124;SDS011;49182;50.788;7.318;2022-12-07T06:59:26;28.10;;;12.48;;
43124;SDS011;49182;50.788;7.318;2022-12-07T07:01:52;26.25;;;13.23;;
43124;SDS011;49182;50.788;7.318;2022-12-07T07:04:19;26.25;;;14.27;;
43124;SDS011;49182;50.788;7.318;2022-12-07T07:06:45;51.50;;;23.02;;
43124;SDS011;49182;50.788;7.318;2022-12-07T07:09:15;32.42;;;16.40;;
43124;SDS011;49182;50.788;7.318;2022-12-07T07:11:41;46.58;;;19.67;;
43124;SDS011;49182;50.788;7.318;2022-12-07T07:14:08;30.20;;;16.58;;
43124;SDS011;49182;50.788;7.318;2022-12-07T07:16:34;29.30;;;13.77;;
43124;SDS011;49182;50.788;7.318;2022-12-07T07:19:01;23.75;;;13.40;;
43124;SDS011;49182;50.788;7.318;2022-12-07T07:21:28;28.30;;;14.18;;
43124;SDS011;49182;50.788;7.318;2022-12-07T07:23:54;24.60;;;11.63;;
43124;SDS011;49182;50.788;7.318;2022-12-07T07:26:22;22.25;;;12.25;;
43124;SDS011;49182;50.788;7.318;2022-12-07T07:28:49;21.98;;;12.40;;
43124;SDS011;49182;50.788;7.318;2022-12-07T07:31:15;23.02;;;11.85;;
43124;SDS011;49182;50.788;7.318;2022-12-07T07:33:42;23.58;;;12.32;;
43124;SDS011;49182;50.788;7.318;2022-12-07T07:36:09;23.13;;;11.30;;
43124;SDS011;49182;50.788;7.318;2022-12-07T07:38:35;29.20;;;13.90;;
43124;SDS011;49182;50.788;7.318;2022-12-07T07:41:02;23.13;;;13.02;;
43124;SDS011;49182;50.788;7.318;2022-12-07T07:43:30;29.33;;;14.18;;
43124;SDS011;49182;50.788;7.318;2022-12-07T07:45:58;30.40;;;14.60;;
43124;SDS011;49182;50.788;7.318;2022-12-07T07:48:25;27.52;;;14.02;;
43124;SDS011;49182;50.788;7.318;2022-12-07T07:50:51;24.52;;;13.15;;
43124;SDS011;49182;50.788;7.318;2022-12-07T07:53:18;28.90;;;14.13;;
43124;SDS011;49182;50.788;7.318;2022-12-07T07:55:50;27.48;;;13.88;;
43124;SDS011;49182;50.788;7.318;2022-12-07T07:58:17;29.98;;;13.85;;
43124;SDS011;49182;50.788;7.318;2022-12-07T08:00:45;27.40;;;13.07;;
43124;SDS011;49182;50.788;7.318;2022-12-07T08:03:12;29.10;;;14.63;;
43124;SDS011;49182;50.788;7.318;2022-12-07T08:05:38;29.92;;;13.60;;
43124;SDS011;49182;50.788;7.318;2022-12-07T08:08:05;23.00;;;13.05;;
43124;SDS011;49182;50.788;7.318;2022-12-07T08:10:31;37.40;;;15.07;;
43124;SDS011;49182;50.788;7.318;2022-12-07T08:12:58;31.58;;;15.57;;
43124;SDS011;49182;50.788;7.318;2022-12-07T08:15:25;32.88;;;14.50;;
43124;SDS011;49182;50.788;7.318;2022-12-07T08:17:54;30.65;;;14.85;;
43124;SDS011;49182;50.788;7.318;2022-12-07T08:20:21;33.67;;;16.63;;
43124;SDS011;49182;50.788;7.318;2022-12-07T08:22:48;33.78;;;16.75;;
43124;SDS011;49182;50.788;7.318;2022-12-07T08:25:14;36.72;;;16.38;;
43124;SDS011;49182;50.788;7.318;2022-12-07T08:27:41;40.70;;;18.75;;
43124;SDS011;49182;50.788;7.318;2022-12-07T08:30:08;42.40;;;19.90;;
43124;SDS011;49182;50.788;7.318;2022-12-07T08:32:36;34.25;;;15.35;;
43124;SDS011;49182;50.788;7.318;2022-12-07T08:35:04;39.45;;;17.48;;
43124;SDS011;49182;50.788;7.318;2022-12-07T08:37:31;37.78;;;17.65;;
43124;SDS011;49182;50.788;7.318;2022-12-07T08:39:58;33.60;;;20.33;;
43124;SDS011;49182;50.788;7.318;2022-12-07T08:42:25;31.42;;;16.60;;
43124;SDS011;49182;50.788;7.318;2022-12-07T08:44:52;33.85;;;15.30;;
43124;SDS011;49182;50.788;7.318;2022-12-07T08:47:18;34.33;;;17.08;;
43124;SDS011;49182;50.788;7.318;2022-12-07T08:49:46;27.30;;;13.80;;
43124;SDS011;49182;50.788;7.318;2022-12-07T08:52:16;30.75;;;14.68;;
43124;SDS011;49182;50.788;7.318;2022-12-07T08:54:43;28.75;;;14.75;;
43124;SDS011;49182;50.788;7.318;2022-12-07T08:57:11;26.00;;;14.55;;
43124;SDS011;49182;50.788;7.318;2022-12-07T08:59:38;28.80;;;14.57;;
43124;SDS011;49182;50.788;7.318;2022-12-07T09:02:04;30.48;;;14.63;;
43124;SDS011;49182;50.788;7.318;2022-12-07T09:04:31;26.65;;;13.82;;
43124;SDS011;49182;50.788;7.318;2022-12-07T09:06:58;27.80;;;14.93;;
43124;SDS011;49182;50.788;7.318;2022-12-07T09:09:26;32.03;;;15.25;;
43124;SDS011;49182;50.788;7.318;2022-12-07T09:11:53;25.30;;;13.90;;
43124;SDS011;49182;50.788;7.318;2022-12-07T09:14:19;30.67;;;14.82;;
43124;SDS011;49182;50.788;7.318;2022-12-07T09:16:46;25.42;;;13.88;;
43124;SDS011;49182;50.788;7.318;2022-12-07T09:19:12;28.58;;;14.43;;
43124;SDS011;49182;50.788;7.318;2022-12-07T09:21:39;29.52;;;13.80;;
43124;SDS011;49182;50.788;7.318;2022-12-07T09:24:06;26.08;;;13.82;;
43124;SDS011;49182;50.788;7.318;2022-12-07T09:26:34;30.85;;;15.32;;
43124;SDS011;49182;50.788;7.318;2022-12-07T09:29:01;28.65;;;13.98;;
43124;SDS011;49182;50.788;7.318;2022-12-07T09:31:29;28.55;;;13.38;;
43124;SDS011;49182;50.788;7.318;2022-12-07T09:33:55;26.58;;;13.63;;
43124;SDS011;49182;50.788;7.318;2022-12-07T09:36:23;26.23;;;13.23;;
43124;SDS011;49182;50.788;7.318;2022-12-07T09:38:50;24.92;;;13.10;;
43124;SDS011;49182;50.788;7.318;2022-12-07T09:41:17;26.10;;;14.32;;
43124;SDS011;49182;50.788;7.318;2022-12-07T09:43:45;23.42;;;12.85;;
43124;SDS011;49182;50.788;7.318;2022-12-07T09:46:13;22.80;;;12.48;;
43124;SDS011;49182;50.788;7.318;2022-12-07T09:48:42;24.05;;;12.82;;
43124;SDS011;49182;50.788;7.318;2022-12-07T09:51:13;26.27;;;13.02;;
43124;SDS011;49182;50.788;7.318;2022-12-07T09:53:48;32.47;;;15.80;;
43124;SDS011;49182;50.788;7.318;2022-12-07T09:56:16;30.13;;;12.85;;
43124;SDS011;49182;50.788;7.318;2022-12-07T09:58:46;29.02;;;13.52;;
43124;SDS011;49182;50.788;7.318;2022-12-07T10:01:14;30.60;;;16.20;;
43124;SDS011;49182;50.788;7.318;2022-12-07T10:03:42;21.45;;;11.43;;
43124;SDS011;49182;50.788;7.318;2022-12-07T10:06:14;21.20;;;11.82;;
43124;SDS011;49182;50.788;7.318;2022-12-07T10:08:41;24.52;;;12.25;;
43124;SDS011;49182;50.788;7.318;2022-12-07T10:11:08;24.55;;;12.13;;
43124;SDS011;49182;50.788;7.318;2022-12-07T10:13:35;21.83;;;12.00;;
43124;SDS011;49182;50.788;7.318;2022-12-07T10:16:05;21.85;;;12.00;;
43124;SDS011;49182;50.788;7.318;2022-12-07T10:18:33;24.25;;;11.20;;
43124;SDS011;49182;50.788;7.318;2022-12-07T10:21:11;21.92;;;11.45;;
43124;SDS011;49182;50.788;7.318;2022-12-07T10:23:40;23.15;;;12.43;;
43124;SDS011;49182;50.788;7.318;2022-12-07T10:26:26;23.65;;;12.27;;
43124;SDS011;49182;50.788;7.318;2022-12-07T10:28:55;29.52;;;13.30;;
43124;SDS011;49182;50.788;7.318;2022-12-07T10:31:27;27.42;;;13.27;;
43124;SDS011;49182;50.788;7.318;2022-12-07T10:33:55;28.00;;;14.48;;
43124;SDS011;49182;50.788;7.318;2022-12-07T10:36:24;27.80;;;14.50;;
43124;SDS011;49182;50.788;7.318;2022-12-07T10:38:53;21.02;;;12.57;;
43124;SDS011;49182;50.788;7.318;2022-12-07T10:41:24;21.30;;;11.82;;
43124;SDS011;49182;50.788;7.318;2022-12-07T10:43:52;21.52;;;11.30;;
43124;SDS011;49182;50.788;7.318;2022-12-07T10:46:24;24.48;;;10.38;;
43124;SDS011;49182;50.788;7.318;2022-12-07T10:49:38;20.63;;;11.85;;
43124;SDS011;49182;50.788;7.318;2022-12-07T10:52:22;25.90;;;12.68;;
43124;SDS011;49182;50.788;7.318;2022-12-07T10:55:03;29.25;;;12.95;;
43124;SDS011;49182;50.788;7.318;2022-12-07T10:57:41;24.75;;;12.05;;
43124;SDS011;49182;50.788;7.318;2022-12-07T11:00:21;23.15;;;11.75;;
43124;SDS011;49182;50.788;7.318;2022-12-07T11:03:09;27.17;;;12.25;;
43124;SDS011;49182;50.788;7.318;2022-12-07T11:05:53;25.17;;;12.57;;
43124;SDS011;49182;50.788;7.318;2022-12-07T11:08:30;24.92;;;12.45;;
43124;SDS011;49182;50.788;7.318;2022-12-07T11:11:12;25.42;;;12.23;;
43124;SDS011;49182;50.788;7.318;2022-12-07T11:13:41;22.40;;;12.25;;
43124;SDS011;49182;50.788;7.318;2022-12-07T11:16:19;26.50;;;12.00;;
43124;SDS011;49182;50.788;7.318;2022-12-07T11:18:58;25.65;;;12.30;;
43124;SDS011;49182;50.788;7.318;2022-12-07T11:21:35;22.13;;;12.63;;
43124;SDS011;49182;50.788;7.318;2022-12-07T11:24:10;27.80;;;13.13;;
43124;SDS011;49182;50.788;7.318;2022-12-07T11:26:49;25.25;;;13.68;;
43124;SDS011;49182;50.788;7.318;2022-12-07T11:29:33;24.02;;;11.88;;
43124;SDS011;49182;50.788;7.318;2022-12-07T11:32:11;36.95;;;14.68;;
43124;SDS011;49182;50.788;7.318;2022-12-07T11:34:45;22.95;;;12.05;;
43124;SDS011;49182;50.788;7.318;2022-12-07T11:37:23;28.80;;;12.55;;
43124;SDS011;49182;50.788;7.318;2022-12-07T11:40:05;24.90;;;13.15;;
43124;SDS011;49182;50.788;7.318;2022-12-07T11:42:44;29.45;;;14.32;;
43124;SDS011;49182;50.788;7.318;2022-12-07T11:45:16;23.77;;;11.32;;
43124;SDS011;49182;50.788;7.318;2022-12-07T11:47:48;22.77;;;10.85;;
43124;SDS011;49182;50.788;7.318;2022-12-07T11:50:23;24.63;;;9.85;;
43124;SDS011;49182;50.788;7.318;2022-12-07T11:52:54;20.15;;;10.07;;
43124;SDS011;49182;50.788;7.318;2022-12-07T11:55:26;21.38;;;10.52;;
43124;SDS011;49182;50.788;7.318;2022-12-07T11:58:02;21.25;;;10.18;;
43124;SDS011;49182;50.788;7.318;2022-12-07T12:02:58;18.67;;;7.88;;
43124;SDS011;49182;50.788;7.318;2022-12-07T12:05:28;15.43;;;7.03;;
43124;SDS011;49182;50.788;7.318;2022-12-07T12:07:58;19.05;;;7.93;;
43124;SDS011;49182;50.788;7.318;2022-12-07T12:10:54;15.68;;;7.25;;
43124;SDS011;49182;50.788;7.318;2022-12-07T12:13:34;14.82;;;7.60;;
43124;SDS011;49182;50.788;7.318;2022-12-07T12:16:53;15.40;;;6.93;;
43124;SDS011;49182;50.788;7.318;2022-12-07T12:19:36;13.93;;;6.87;;
43124;SDS011;49182;50.788;7.318;2022-12-07T12:22:10;17.38;;;6.53;;
43124;SDS011;49182;50.788;7.318;2022-12-07T12:24:42;13.13;;;6.20;;
43124;SDS011;49182;50.788;7.318;2022-12-07T12:27:16;17.95;;;6.47;;
43124;SDS011;49182;50.788;7.318;2022-12-07T12:29:52;11.10;;;5.43;;
43124;SDS011;49182;50.788;7.318;2022-12-07T12:32:21;12.35;;;5.85;;
43124;SDS011;49182;50.788;7.318;2022-12-07T12:34:57;15.07;;;5.65;;
43124;SDS011;49182;50.788;7.318;2022-12-07T12:37:39;15.52;;;6.13;;
43124;SDS011;49182;50.788;7.318;2022-12-07T12:55:17;11.90;;;5.07;;
43124;SDS011;49182;50.788;7.318;2022-12-07T13:04:24;16.48;;;6.22;;
43124;SDS011;49182;50.788;7.318;2022-12-07T13:06:54;12.40;;;5.63;;
43124;SDS011;49182;50.788;7.318;2022-12-07T13:09:23;15.45;;;5.13;;
43124;SDS011;49182;50.788;7.318;2022-12-07T13:11:56;14.93;;;5.28;;
43124;SDS011;49182;50.788;7.318;2022-12-07T13:20:44;12.80;;;5.25;;
43124;SDS011;49182;50.788;7.318;2022-12-07T13:23:13;13.52;;;5.25;;
43124;SDS011;49182;50.788;7.318;2022-12-07T13:25:46;15.13;;;6.22;;
43124;SDS011;49182;50.788;7.318;2022-12-07T13:28:17;13.68;;;6.43;;
43124;SDS011;49182;50.788;7.318;2022-12-07T13:30:47;15.05;;;6.47;;
43124;SDS011;49182;50.788;7.318;2022-12-07T13:33:27;14.02;;;5.97;;
43124;SDS011;49182;50.788;7.318;2022-12-07T13:35:55;12.43;;;5.88;;
43124;SDS011;49182;50.788;7.318;2022-12-07T13:38:23;13.43;;;5.85;;
43124;SDS011;49182;50.788;7.318;2022-12-07T13:41:03;12.77;;;5.57;;
43124;SDS011;49182;50.788;7.318;2022-12-07T13:43:31;15.27;;;7.43;;
43124;SDS011;49182;50.788;7.318;2022-12-07T13:46:09;14.75;;;7.05;;
43124;SDS011;49182;50.788;7.318;2022-12-07T13:48:44;15.35;;;6.78;;
43124;SDS011;49182;50.788;7.318;2022-12-07T13:51:16;12.32;;;6.07;;
43124;SDS011;49182;50.788;7.318;2022-12-07T13:53:46;14.35;;;6.50;;
43124;SDS011;49182;50.788;7.318;2022-12-07T13:56:13;15.95;;;7.70;;
43124;SDS011;49182;50.788;7.318;2022-12-07T13:58:40;15.43;;;7.82;;
43124;SDS011;49182;50.788;7.318;2022-12-07T14:01:07;23.60;;;11.90;;
43124;SDS011;49182;50.788;7.318;2022-12-07T14:03:35;18.00;;;7.28;;
43124;SDS011;49182;50.788;7.318;2022-12-07T14:06:03;18.35;;;6.55;;
43124;SDS011;49182;50.788;7.318;2022-12-07T14:08:32;14.45;;;7.03;;
43124;SDS011;49182;50.788;7.318;2022-12-07T14:10:59;15.85;;;8.23;;
43124;SDS011;49182;50.788;7.318;2022-12-07T14:13:27;16.73;;;6.47;;
43124;SDS011;49182;50.788;7.318;2022-12-07T14:15:57;13.98;;;6.20;;
43124;SDS011;49182;50.788;7.318;2022-12-07T14:18:27;16.80;;;8.80;;
43124;SDS011;49182;50.788;7.318;2022-12-07T14:21:04;18.65;;;8.63;;
43124;SDS011;49182;50.788;7.318;2022-12-07T14:23:31;16.58;;;7.45;;
43124;SDS011;49182;50.788;7.318;2022-12-07T14:26:05;14.88;;;6.75;;
43124;SDS011;49182;50.788;7.318;2022-12-07T14:28:34;16.30;;;7.72;;
43124;SDS011;49182;50.788;7.318;2022-12-07T14:31:03;14.88;;;7.20;;
43124;SDS011;49182;50.788;7.318;2022-12-07T14:33:41;17.85;;;7.32;;
43124;SDS011;49182;50.788;7.318;2022-12-07T14:36:08;17.38;;;7.28;;
43124;SDS011;49182;50.788;7.318;2022-12-07T14:38:35;17.85;;;10.00;;
43124;SDS011;49182;50.788;7.318;2022-12-07T14:41:02;16.10;;;7.40;;
43124;SDS011;49182;50.788;7.318;2022-12-07T14:43:30;16.60;;;8.07;;
43124;SDS011;49182;50.788;7.318;2022-12-07T14:45:56;17.05;;;8.80;;
43124;SDS011;49182;50.788;7.318;2022-12-07T14:48:23;18.70;;;8.90;;
43124;SDS011;49182;50.788;7.318;2022-12-07T14:51:11;16.80;;;7.85;;
43124;SDS011;49182;50.788;7.318;2022-12-07T14:53:59;24.00;;;9.75;;
43124;SDS011;49182;50.788;7.318;2022-12-07T14:56:25;14.13;;;8.10;;
43124;SDS011;49182;50.788;7.318;2022-12-07T14:58:52;19.05;;;8.30;;
43124;SDS011;49182;50.788;7.318;2022-12-07T15:01:19;19.42;;;7.75;;
43124;SDS011;49182;50.788;7.318;2022-12-07T15:03:45;21.98;;;10.52;;
43124;SDS011;49182;50.788;7.318;2022-12-07T15:06:14;19.60;;;8.73;;
43124;SDS011;49182;50.788;7.318;2022-12-07T15:08:42;18.27;;;9.70;;
43124;SDS011;49182;50.788;7.318;2022-12-07T15:11:09;18.17;;;8.65;;
43124;SDS011;49182;50.788;7.318;2022-12-07T15:13:38;18.50;;;8.13;;
43124;SDS011;49182;50.788;7.318;2022-12-07T15:16:04;15.93;;;7.00;;
43124;SDS011;49182;50.788;7.318;2022-12-07T15:18:34;15.10;;;7.50;;